createdAt,value
2018-07-21T00:00:59.319Z,0.00
2018-07-21T00:02:00.375Z,0.00
2018-07-21T00:02:59.504Z,0.00
2018-07-21T00:03:59.319Z,0.00
2018-07-21T00:04:59.406Z,0.00
2018-07-21T00:05:59.378Z,0.00
2018-07-21T00:06:59.337Z,0.00
2018-07-21T00:07:59.326Z,0.00
2018-07-21T00:08:59.322Z,0.00
2018-07-21T00:09:59.427Z,0.00
2018-07-21T00:10:59.335Z,0.00
2018-07-21T00:11:59.379Z,0.00
2018-07-21T00:12:59.323Z,0.00
2018-07-21T00:13:59.336Z,0.00
2018-07-21T00:14:59.319Z,0.00
2018-07-21T00:15:59.433Z,0.00
2018-07-21T00:16:59.483Z,0.00
2018-07-21T00:17:59.590Z,0.00
2018-07-21T00:18:59.413Z,0.00
2018-07-21T00:19:59.390Z,0.00
2018-07-21T00:20:59.380Z,0.00
2018-07-21T00:22:00.139Z,0.00
2018-07-21T00:22:59.409Z,0.00
2018-07-21T00:23:59.403Z,0.00
2018-07-21T00:24:59.535Z,0.00
2018-07-21T00:25:59.384Z,0.00
2018-07-21T00:26:59.445Z,0.00
2018-07-21T00:27:59.486Z,0.00
2018-07-21T00:28:59.486Z,0.00
2018-07-21T00:29:59.398Z,0.00
2018-07-21T00:30:59.436Z,0.00
2018-07-21T00:31:59.439Z,0.00
2018-07-21T00:32:59.450Z,0.00
2018-07-21T00:33:59.476Z,0.00
2018-07-21T00:34:59.463Z,0.00
2018-07-21T00:35:59.623Z,0.00
2018-07-21T00:37:00.203Z,0.00
2018-07-21T00:37:59.603Z,0.00
2018-07-21T00:38:59.584Z,0.00
2018-07-21T00:39:59.676Z,0.00
2018-07-21T00:40:59.553Z,0.00
2018-07-21T00:41:59.593Z,0.00
2018-07-21T00:42:59.556Z,0.00
2018-07-21T00:43:59.647Z,0.00
2018-07-21T00:44:59.518Z,0.00
2018-07-21T00:45:59.807Z,0.00
2018-07-21T00:46:59.747Z,0.00
2018-07-21T00:47:59.528Z,0.00
2018-07-21T00:48:59.499Z,0.00
2018-07-21T00:49:59.537Z,0.00
2018-07-21T00:50:59.828Z,0.00
2018-07-21T00:51:59.550Z,0.00
2018-07-21T00:52:59.556Z,0.00
2018-07-21T00:53:59.565Z,0.00
2018-07-21T00:54:59.525Z,0.00
2018-07-21T00:55:59.517Z,0.00
2018-07-21T00:56:59.575Z,0.00
2018-07-21T00:57:59.567Z,0.00
2018-07-21T00:58:59.617Z,0.00
2018-07-21T00:59:59.579Z,0.00
2018-07-21T01:00:59.584Z,0.00
2018-07-21T01:01:59.709Z,0.00
2018-07-21T01:02:59.653Z,0.00
2018-07-21T01:03:59.811Z,0.00
2018-07-21T01:04:59.589Z,0.00
2018-07-21T01:05:59.624Z,0.00
2018-07-21T01:06:59.574Z,0.00
2018-07-21T01:07:59.629Z,0.00
2018-07-21T01:08:59.750Z,0.00
2018-07-21T01:09:59.649Z,0.00
2018-07-21T01:10:59.619Z,0.00
2018-07-21T01:11:59.610Z,0.00
2018-07-21T01:12:59.724Z,0.00
2018-07-21T01:13:59.615Z,0.00
2018-07-21T01:14:59.600Z,0.00
2018-07-21T01:15:59.643Z,0.00
2018-07-21T01:16:59.624Z,0.00
2018-07-21T01:17:59.656Z,0.00
2018-07-21T01:18:59.636Z,0.00
2018-07-21T01:19:59.650Z,0.00
2018-07-21T01:20:59.681Z,0.00
2018-07-21T01:21:59.658Z,0.00
2018-07-21T01:22:59.639Z,0.00
2018-07-21T01:23:59.654Z,0.00
2018-07-21T01:24:59.667Z,0.00
2018-07-21T01:25:59.618Z,0.00
2018-07-21T01:26:59.621Z,0.00
2018-07-21T01:27:59.724Z,0.00
2018-07-21T01:28:59.644Z,0.00
2018-07-21T01:29:59.691Z,0.00
2018-07-21T01:30:59.725Z,0.00
2018-07-21T01:31:59.633Z,0.00
2018-07-21T01:32:59.748Z,0.00
2018-07-21T01:33:59.756Z,0.00
2018-07-21T01:34:59.658Z,0.00
2018-07-21T01:35:59.736Z,0.00
2018-07-21T01:36:59.676Z,0.00
2018-07-21T01:37:59.681Z,0.00
2018-07-21T01:38:59.973Z,0.00
2018-07-21T01:39:59.785Z,0.00
2018-07-21T01:40:59.711Z,0.00
2018-07-21T01:41:59.692Z,0.00
2018-07-21T01:42:59.684Z,0.00
2018-07-21T01:44:00.179Z,0.00
2018-07-21T01:44:59.778Z,0.00
2018-07-21T01:45:59.746Z,0.00
2018-07-21T01:46:59.719Z,0.00
2018-07-21T01:47:59.750Z,0.00
2018-07-21T01:48:59.749Z,0.00
2018-07-21T01:49:59.861Z,0.00
2018-07-21T01:50:59.746Z,0.00
2018-07-21T01:51:59.755Z,0.00
2018-07-21T01:52:59.755Z,0.00
2018-07-21T01:53:59.876Z,0.00
2018-07-21T01:54:59.793Z,0.00
2018-07-21T01:55:59.814Z,0.00
2018-07-21T01:56:59.787Z,0.00
2018-07-21T01:57:59.817Z,0.00
2018-07-21T01:58:59.751Z,0.00
2018-07-21T01:59:59.818Z,0.00
2018-07-21T02:00:59.758Z,0.00
2018-07-21T02:01:59.816Z,0.00
2018-07-21T02:02:59.834Z,0.00
2018-07-21T02:03:59.834Z,0.00
2018-07-21T02:04:59.855Z,0.00
2018-07-21T02:05:59.842Z,0.00
2018-07-21T02:06:59.772Z,0.00
2018-07-21T02:07:59.821Z,0.00
2018-07-21T02:08:59.901Z,0.00
2018-07-21T02:09:59.874Z,0.00
2018-07-21T02:10:59.794Z,0.00
2018-07-21T02:11:59.890Z,0.00
2018-07-21T02:12:59.857Z,0.00
2018-07-21T02:13:59.852Z,0.00
2018-07-21T02:14:59.955Z,0.00
2018-07-21T02:15:59.871Z,0.00
2018-07-21T02:17:00.248Z,0.00
2018-07-21T02:18:00.048Z,0.00
2018-07-21T02:18:59.856Z,0.00
2018-07-21T02:19:59.837Z,0.00
2018-07-21T02:20:59.965Z,0.00
2018-07-21T02:21:59.861Z,0.00
2018-07-21T02:22:59.877Z,0.00
2018-07-21T02:23:59.915Z,0.00
2018-07-21T02:24:59.873Z,0.00
2018-07-21T02:25:59.939Z,0.00
2018-07-21T02:26:59.890Z,0.00
2018-07-21T02:27:59.945Z,0.00
2018-07-21T02:28:59.921Z,0.00
2018-07-21T02:29:59.935Z,0.00
2018-07-21T02:31:00.065Z,0.00
2018-07-21T02:31:59.913Z,0.00
2018-07-21T02:32:59.904Z,0.00
2018-07-21T02:33:59.956Z,0.00
2018-07-21T02:34:59.994Z,0.00
2018-07-21T02:35:59.900Z,0.00
2018-07-21T02:37:00.753Z,0.00
2018-07-21T02:37:59.987Z,0.00
2018-07-21T02:38:59.945Z,0.00
2018-07-21T02:39:59.918Z,0.00
2018-07-21T02:41:00.108Z,0.00
2018-07-21T02:41:59.938Z,0.00
2018-07-21T02:42:59.951Z,0.00
2018-07-21T02:44:00.014Z,0.00
2018-07-21T02:45:00.059Z,0.00
2018-07-21T02:45:59.947Z,0.00
2018-07-21T02:46:59.998Z,0.00
2018-07-21T02:47:59.967Z,0.00
2018-07-21T02:49:00.002Z,0.00
2018-07-21T02:49:59.966Z,0.00
2018-07-21T02:51:00.023Z,0.00
2018-07-21T02:52:00.221Z,0.00
2018-07-21T02:52:59.996Z,0.00
2018-07-21T02:53:59.990Z,0.00
2018-07-21T02:54:59.956Z,0.00
2018-07-21T02:56:00.098Z,0.00
2018-07-21T02:57:00.007Z,0.00
2018-07-21T02:58:00.043Z,0.00
2018-07-21T02:59:00.113Z,0.00
2018-07-21T03:00:00.041Z,0.00
2018-07-21T03:01:00.037Z,0.00
2018-07-21T03:01:59.987Z,0.00
2018-07-21T03:03:00.080Z,0.00
2018-07-21T03:04:00.068Z,0.00
2018-07-21T03:05:00.101Z,4.00
2018-07-21T03:06:00.099Z,4.00
2018-07-21T03:07:00.086Z,4.00
2018-07-21T03:08:00.089Z,0.00
2018-07-21T03:09:00.150Z,4.00
2018-07-21T03:10:00.179Z,4.00
2018-07-21T03:11:00.078Z,4.00
2018-07-21T03:12:00.067Z,4.00
2018-07-21T03:13:00.053Z,8.00
2018-07-21T03:14:00.067Z,4.00
2018-07-21T03:15:00.061Z,4.00
2018-07-21T03:16:00.098Z,8.00
2018-07-21T03:17:00.037Z,4.00
2018-07-21T03:18:00.084Z,4.00
2018-07-21T03:19:00.119Z,8.00
2018-07-21T03:20:00.101Z,8.00
2018-07-21T03:21:00.110Z,8.00
2018-07-21T03:22:00.168Z,12.00
2018-07-21T03:23:00.097Z,12.00
2018-07-21T03:24:00.150Z,12.00
2018-07-21T03:25:00.115Z,12.00
2018-07-21T03:26:00.184Z,16.00
2018-07-21T03:27:00.097Z,16.00
2018-07-21T03:28:00.100Z,20.00
2018-07-21T03:29:00.113Z,24.00
2018-07-21T03:30:00.206Z,28.00
2018-07-21T03:31:00.155Z,32.00
2018-07-21T03:32:00.079Z,32.00
2018-07-21T03:33:00.180Z,36.00
2018-07-21T03:34:00.191Z,36.00
2018-07-21T03:35:00.167Z,40.00
2018-07-21T03:36:00.276Z,44.00
2018-07-21T03:37:00.188Z,44.00
2018-07-21T03:38:00.097Z,48.00
2018-07-21T03:39:00.206Z,48.00
2018-07-21T03:40:00.131Z,52.00
2018-07-21T03:41:00.222Z,56.00
2018-07-21T03:42:00.230Z,52.00
2018-07-21T03:43:00.192Z,56.00
2018-07-21T03:44:00.182Z,56.00
2018-07-21T03:45:00.115Z,56.00
2018-07-21T03:46:00.131Z,56.00
2018-07-21T03:47:00.183Z,56.00
2018-07-21T03:48:00.168Z,56.00
2018-07-21T03:49:00.192Z,60.00
2018-07-21T03:50:00.188Z,64.00
2018-07-21T03:51:00.220Z,64.00
2018-07-21T03:52:00.235Z,72.00
2018-07-21T03:53:00.250Z,76.00
2018-07-21T03:54:00.244Z,80.00
2018-07-21T03:55:00.283Z,84.00
2018-07-21T03:56:00.226Z,92.00
2018-07-21T03:57:00.193Z,100.00
2018-07-21T03:58:00.223Z,108.00
2018-07-21T03:59:00.265Z,112.00
2018-07-21T04:00:00.423Z,120.00
2018-07-21T04:01:00.263Z,128.00
2018-07-21T04:02:00.296Z,136.00
2018-07-21T04:03:00.220Z,148.00
2018-07-21T04:04:00.328Z,152.00
2018-07-21T04:05:00.314Z,164.00
2018-07-21T04:06:00.317Z,176.00
2018-07-21T04:07:00.245Z,188.00
2018-07-21T04:08:00.303Z,200.00
2018-07-21T04:09:00.373Z,208.00
2018-07-21T04:10:00.258Z,212.00
2018-07-21T04:11:00.245Z,216.00
2018-07-21T04:12:00.292Z,212.00
2018-07-21T04:13:00.294Z,212.00
2018-07-21T04:14:00.315Z,212.00
2018-07-21T04:15:00.308Z,208.00
2018-07-21T04:16:00.414Z,212.00
2018-07-21T04:17:00.635Z,212.00
2018-07-21T04:18:00.239Z,216.00
2018-07-21T04:19:00.337Z,216.00
2018-07-21T04:20:00.292Z,216.00
2018-07-21T04:21:00.255Z,220.00
2018-07-21T04:22:00.289Z,220.00
2018-07-21T04:23:00.314Z,216.00
2018-07-21T04:24:00.258Z,208.00
2018-07-21T04:25:00.335Z,200.00
2018-07-21T04:26:00.265Z,192.00
2018-07-21T04:27:00.358Z,184.00
2018-07-21T04:28:00.335Z,176.00
2018-07-21T04:29:00.323Z,172.00
2018-07-21T04:30:00.370Z,164.00
2018-07-21T04:31:00.380Z,156.00
2018-07-21T04:32:00.374Z,156.00
2018-07-21T04:33:00.324Z,152.00
2018-07-21T04:34:00.550Z,148.00
2018-07-21T04:35:00.761Z,152.00
2018-07-21T04:36:00.518Z,156.00
2018-07-21T04:37:00.583Z,156.00
2018-07-21T04:38:00.407Z,160.00
2018-07-21T04:39:00.443Z,168.00
2018-07-21T04:40:00.531Z,176.00
2018-07-21T04:41:00.412Z,180.00
2018-07-21T04:42:00.423Z,192.00
2018-07-21T04:43:00.525Z,200.00
2018-07-21T04:44:00.465Z,204.00
2018-07-21T04:45:00.390Z,216.00
2018-07-21T04:46:00.355Z,220.00
2018-07-21T04:47:00.559Z,224.00
2018-07-21T04:48:00.446Z,232.00
2018-07-21T04:49:00.446Z,236.00
2018-07-21T04:50:00.493Z,248.00
2018-07-21T04:51:00.442Z,252.00
2018-07-21T04:52:00.401Z,260.00
2018-07-21T04:53:00.479Z,272.00
2018-07-21T04:54:00.473Z,284.00
2018-07-21T04:55:00.444Z,300.00
2018-07-21T04:56:00.466Z,312.00
2018-07-21T04:57:01.353Z,324.00
2018-07-21T04:58:00.495Z,344.00
2018-07-21T04:59:00.437Z,360.00
2018-07-21T05:00:00.450Z,376.00
2018-07-21T05:01:00.527Z,400.00
2018-07-21T05:02:00.450Z,432.00
2018-07-21T05:03:00.449Z,480.00
2018-07-21T05:04:00.550Z,548.00
2018-07-21T05:05:00.521Z,612.00
2018-07-21T05:06:00.503Z,664.00
2018-07-21T05:07:01.276Z,716.00
2018-07-21T05:08:00.572Z,772.00
2018-07-21T05:09:00.504Z,832.00
2018-07-21T05:10:00.606Z,900.00
2018-07-21T05:11:00.468Z,968.00
2018-07-21T05:12:00.555Z,1024.00
2018-07-21T05:13:00.510Z,1068.00
2018-07-21T05:14:00.508Z,1092.00
2018-07-21T05:15:00.562Z,1080.00
2018-07-21T05:16:00.515Z,1072.00
2018-07-21T05:17:00.504Z,1084.00
2018-07-21T05:18:00.471Z,1064.00
2018-07-21T05:19:00.549Z,1012.00
2018-07-21T05:20:00.676Z,960.00
2018-07-21T05:21:00.587Z,952.00
2018-07-21T05:22:00.472Z,996.00
2018-07-21T05:23:00.516Z,1116.00
2018-07-21T05:24:00.574Z,1328.00
2018-07-21T05:25:00.495Z,1532.00
2018-07-21T05:26:00.539Z,1692.00
2018-07-21T05:27:00.516Z,1808.00
2018-07-21T05:28:00.510Z,1912.00
2018-07-21T05:29:00.519Z,2020.00
2018-07-21T05:30:00.544Z,2144.00
2018-07-21T05:31:00.536Z,2284.00
2018-07-21T05:32:00.564Z,2424.00
2018-07-21T05:33:00.600Z,2552.00
2018-07-21T05:34:00.663Z,2628.00
2018-07-21T05:35:00.634Z,2676.00
2018-07-21T05:36:00.566Z,2700.00
2018-07-21T05:37:00.844Z,2712.00
2018-07-21T05:38:00.772Z,2700.00
2018-07-21T05:39:00.613Z,2680.00
2018-07-21T05:40:00.628Z,2644.00
2018-07-21T05:41:00.598Z,2616.00
2018-07-21T05:42:00.545Z,2584.00
2018-07-21T05:43:00.627Z,2568.00
2018-07-21T05:44:00.618Z,2568.00
2018-07-21T05:45:00.689Z,2592.00
2018-07-21T05:46:00.576Z,2628.00
2018-07-21T05:47:00.681Z,2660.00
2018-07-21T05:48:01.492Z,2648.00
2018-07-21T05:49:00.613Z,2608.00
2018-07-21T05:50:00.589Z,2600.00
2018-07-21T05:51:00.636Z,2596.00
2018-07-21T05:52:00.727Z,2652.00
2018-07-21T05:53:00.728Z,2744.00
2018-07-21T05:54:00.706Z,2872.00
2018-07-21T05:55:00.835Z,3040.00
2018-07-21T05:56:00.705Z,3228.00
2018-07-21T05:57:00.655Z,3396.00
2018-07-21T05:58:00.697Z,3508.00
2018-07-21T05:59:00.664Z,3528.00
2018-07-21T06:00:00.672Z,3468.00
2018-07-21T06:01:00.663Z,3460.00
2018-07-21T06:02:00.725Z,3488.00
2018-07-21T06:03:00.729Z,3416.00
2018-07-21T06:04:00.662Z,3324.00
2018-07-21T06:05:00.921Z,3268.00
2018-07-21T06:06:00.685Z,3188.00
2018-07-21T06:07:00.667Z,3116.00
2018-07-21T06:08:00.724Z,3032.00
2018-07-21T06:09:00.691Z,2932.00
2018-07-21T06:10:00.640Z,2856.00
2018-07-21T06:11:01.393Z,2840.00
2018-07-21T06:12:02.384Z,2856.00
2018-07-21T06:13:07.939Z,2912.00
2018-07-21T06:14:01.260Z,2992.00
2018-07-21T06:15:00.673Z,3120.00
2018-07-21T06:16:00.785Z,3280.00
2018-07-21T06:17:00.896Z,3480.00
2018-07-21T06:18:00.701Z,3700.00
2018-07-21T06:19:00.676Z,3988.00
2018-07-21T06:20:00.721Z,4328.00
2018-07-21T06:21:00.730Z,4696.00
2018-07-21T06:23:00.846Z,5196.00
2018-07-21T06:24:00.784Z,5244.00
2018-07-21T06:25:00.783Z,5152.00
2018-07-21T06:26:00.871Z,4968.00
2018-07-21T06:27:00.816Z,4996.00
2018-07-21T06:28:00.853Z,4932.00
2018-07-21T06:29:00.930Z,4788.00
2018-07-21T06:30:00.808Z,4588.00
2018-07-21T06:31:00.814Z,4372.00
2018-07-21T06:32:00.836Z,4404.00
2018-07-21T06:33:00.791Z,4600.00
2018-07-21T06:34:00.799Z,4928.00
2018-07-21T06:35:00.797Z,5064.00
2018-07-21T06:36:00.945Z,5800.00
2018-07-21T06:37:00.826Z,7032.00
2018-07-21T06:38:00.839Z,8460.00
2018-07-21T06:39:00.817Z,7756.00
2018-07-21T06:40:00.802Z,7552.00
2018-07-21T06:41:00.818Z,7124.00
2018-07-21T06:42:00.872Z,6960.00
2018-07-21T06:43:00.850Z,6916.00
2018-07-21T06:44:00.897Z,6900.00
2018-07-21T06:45:00.793Z,7640.00
2018-07-21T06:46:02.499Z,6052.00
2018-07-21T06:47:00.854Z,6324.00
2018-07-21T06:48:00.907Z,7456.00
2018-07-21T06:49:01.318Z,9176.00
2018-07-21T06:50:00.925Z,11116.00
2018-07-21T06:51:00.894Z,13360.00
2018-07-21T06:52:01.325Z,14004.00
2018-07-21T06:53:02.327Z,15176.00
2018-07-21T06:54:00.893Z,16352.00
2018-07-21T06:55:00.971Z,16960.00
2018-07-21T06:56:00.889Z,16768.00
2018-07-21T06:57:01.172Z,15756.00
2018-07-21T06:58:00.972Z,16992.00
2018-07-21T06:59:01.054Z,13888.00
2018-07-21T07:00:00.923Z,12372.00
2018-07-21T07:01:00.931Z,12004.00
2018-07-21T07:02:00.943Z,9820.00
2018-07-21T07:03:00.923Z,9920.00
2018-07-21T07:04:00.927Z,10556.00
2018-07-21T07:05:01.284Z,11836.00
2018-07-21T07:06:01.018Z,8892.00
2018-07-21T07:07:03.497Z,8340.00
2018-07-21T07:08:01.015Z,8788.00
2018-07-21T07:09:00.992Z,10092.00
2018-07-21T07:10:01.322Z,12064.00
2018-07-21T07:11:01.106Z,12784.00
2018-07-21T07:12:01.050Z,9644.00
2018-07-21T07:13:01.220Z,8724.00
2018-07-21T07:14:01.084Z,10252.00
2018-07-21T07:15:01.027Z,11484.00
2018-07-21T07:16:01.099Z,9464.00
2018-07-21T07:17:01.069Z,8836.00
2018-07-21T07:18:01.099Z,10028.00
2018-07-21T07:19:01.098Z,9244.00
2018-07-21T07:20:01.143Z,7184.00
2018-07-21T07:21:01.079Z,6812.00
2018-07-21T07:22:01.203Z,7644.00
2018-07-21T07:23:01.141Z,9624.00
2018-07-21T07:24:01.451Z,14396.00
2018-07-21T07:25:01.292Z,15328.00
2018-07-21T07:26:01.266Z,18112.00
2018-07-21T07:27:01.239Z,19872.00
2018-07-21T07:28:01.182Z,21792.00
2018-07-21T07:29:01.297Z,21792.00
2018-07-21T07:30:01.355Z,21696.00
2018-07-21T07:31:01.209Z,12588.00
2018-07-21T07:32:01.135Z,8356.00
2018-07-21T07:33:01.308Z,6768.00
2018-07-21T07:34:01.246Z,8492.00
2018-07-21T07:35:01.335Z,7644.00
2018-07-21T07:36:01.211Z,9800.00
2018-07-21T07:37:01.548Z,9116.00
2018-07-21T07:38:01.214Z,21536.00
2018-07-21T07:39:01.345Z,10664.00
2018-07-21T07:40:01.278Z,9008.00
2018-07-21T07:41:01.344Z,18400.00
2018-07-21T07:42:01.382Z,41152.00
2018-07-21T07:43:01.475Z,15384.00
2018-07-21T07:44:01.851Z,24992.00
2018-07-21T07:45:01.487Z,18080.00
2018-07-21T07:46:01.385Z,41568.00
2018-07-21T07:47:02.017Z,34048.00
2018-07-21T07:48:01.847Z,17024.00
2018-07-21T07:49:01.324Z,11536.00
2018-07-21T07:50:02.350Z,10244.00
2018-07-21T07:51:02.318Z,10852.00
2018-07-21T07:52:01.555Z,11996.00
2018-07-21T07:53:02.149Z,12304.00
2018-07-21T07:54:01.394Z,11360.00
2018-07-21T07:55:01.708Z,11352.00
2018-07-21T07:56:02.533Z,12252.00
2018-07-21T07:57:01.766Z,9652.00
2018-07-21T07:58:03.585Z,11136.00
2018-07-21T07:59:01.545Z,10380.00
2018-07-21T08:00:01.491Z,13692.00
2018-07-21T08:01:01.544Z,13736.00
2018-07-21T08:02:04.606Z,15016.00
2018-07-21T08:03:01.445Z,26688.00
2018-07-21T08:04:01.575Z,26976.00
2018-07-21T08:05:01.873Z,26368.00
2018-07-21T08:06:02.657Z,28384.00
2018-07-21T08:07:01.531Z,30592.00
2018-07-21T08:08:01.664Z,30528.00
2018-07-21T08:09:01.863Z,32000.00
2018-07-21T08:10:02.364Z,24576.00
2018-07-21T08:11:02.129Z,29664.00
2018-07-21T08:12:02.442Z,28192.00
2018-07-21T08:13:09.121Z,20320.00
2018-07-21T08:14:02.808Z,16096.00
2018-07-21T08:15:02.970Z,17216.00
2018-07-21T08:16:02.062Z,21856.00
2018-07-21T08:17:03.304Z,15936.00
2018-07-21T08:18:01.607Z,17664.00
2018-07-21T08:19:02.343Z,11736.00
2018-07-21T08:20:03.446Z,10692.00
2018-07-21T08:21:02.591Z,11192.00
2018-07-21T08:22:01.728Z,11188.00
2018-07-21T08:23:01.941Z,10496.00
2018-07-21T08:24:01.701Z,11380.00
2018-07-21T08:25:01.758Z,14172.00
2018-07-21T08:26:01.816Z,15500.00
2018-07-21T08:27:02.480Z,18944.00
2018-07-21T08:28:02.395Z,19648.00
2018-07-21T08:29:01.747Z,19936.00
2018-07-21T08:30:01.884Z,19136.00
2018-07-21T08:31:01.885Z,18656.00
2018-07-21T08:32:02.448Z,14444.00
2018-07-21T08:33:02.991Z,13200.00
2018-07-21T08:34:02.674Z,13896.00
2018-07-21T08:35:01.773Z,13724.00
2018-07-21T08:36:01.871Z,15376.00
2018-07-21T08:38:01.709Z,11632.00
2018-07-21T08:39:01.704Z,10388.00
2018-07-21T08:40:02.669Z,10784.00
2018-07-21T08:41:03.600Z,10456.00
2018-07-21T08:42:02.389Z,10180.00
2018-07-21T08:43:01.795Z,10120.00
2018-07-21T08:44:03.295Z,10248.00
2018-07-21T08:45:04.534Z,11260.00
2018-07-21T08:46:02.837Z,13620.00
2018-07-21T08:47:01.826Z,21568.00
2018-07-21T08:48:02.520Z,28512.00
2018-07-21T08:49:01.910Z,28288.00
2018-07-21T08:50:01.850Z,27648.00
2018-07-21T08:51:01.789Z,18944.00
2018-07-21T08:52:01.847Z,13972.00
2018-07-21T08:53:01.820Z,11784.00
2018-07-21T08:54:01.842Z,11072.00
2018-07-21T08:55:01.940Z,11176.00
2018-07-21T08:56:01.942Z,12392.00
2018-07-21T08:57:02.254Z,13684.00
2018-07-21T08:58:01.904Z,13036.00
2018-07-21T08:59:02.002Z,12060.00
2018-07-21T09:00:01.889Z,11568.00
2018-07-21T09:01:01.937Z,12592.00
2018-07-21T09:02:01.919Z,14024.00
2018-07-21T09:03:01.936Z,13304.00
2018-07-21T09:04:02.361Z,14356.00
2018-07-21T09:05:02.253Z,14856.00
2018-07-21T09:06:01.957Z,14784.00
2018-07-21T09:07:02.074Z,14992.00
2018-07-21T09:08:03.409Z,17536.00
2018-07-21T09:09:01.967Z,18112.00
2018-07-21T09:10:02.013Z,13444.00
2018-07-21T09:11:02.022Z,12552.00
2018-07-21T09:12:02.029Z,12124.00
2018-07-21T09:13:02.086Z,11744.00
2018-07-21T09:14:02.030Z,12712.00
2018-07-21T09:15:02.162Z,11784.00
2018-07-21T09:16:02.034Z,11484.00
2018-07-21T09:17:02.029Z,11912.00
2018-07-21T09:18:02.174Z,14404.00
2018-07-21T09:19:02.919Z,15344.00
2018-07-21T09:20:02.111Z,17568.00
2018-07-21T09:21:02.153Z,20064.00
2018-07-21T09:22:27.503Z,13952.00
2018-07-21T09:23:02.291Z,14368.00
2018-07-21T09:24:02.254Z,16128.00
2018-07-21T09:25:02.120Z,19488.00
2018-07-21T09:26:02.137Z,21376.00
2018-07-21T09:27:02.145Z,24768.00
2018-07-21T09:28:02.923Z,23744.00
2018-07-21T09:29:02.276Z,22368.00
2018-07-21T09:30:02.238Z,20608.00
2018-07-21T09:31:02.184Z,28448.00
2018-07-21T09:32:02.216Z,18464.00
2018-07-21T09:33:02.496Z,18368.00
2018-07-21T09:34:02.325Z,22336.00
2018-07-21T09:35:02.315Z,25184.00
2018-07-21T09:36:02.921Z,41792.00
2018-07-21T09:37:02.353Z,43296.00
2018-07-21T09:38:02.924Z,33216.00
2018-07-21T09:39:02.348Z,43968.00
2018-07-21T09:40:02.316Z,46336.00
2018-07-21T09:41:02.240Z,36288.00
2018-07-21T09:42:02.335Z,28800.00
2018-07-21T09:43:02.244Z,29088.00
2018-07-21T09:44:02.305Z,26208.00
2018-07-21T09:45:02.389Z,19296.00
2018-07-21T09:46:02.465Z,20864.00
2018-07-21T09:47:02.487Z,18688.00
2018-07-21T09:48:02.494Z,21632.00
2018-07-21T09:49:02.439Z,32736.00
2018-07-21T09:50:02.396Z,43904.00
2018-07-21T09:51:02.361Z,54176.00
2018-07-21T09:52:02.392Z,49536.00
2018-07-21T09:53:02.452Z,34496.00
2018-07-21T09:54:02.420Z,26592.00
2018-07-21T09:55:02.543Z,28032.00
2018-07-21T09:56:02.608Z,28768.00
2018-07-21T09:57:02.470Z,26592.00
2018-07-21T09:58:02.552Z,28128.00
2018-07-21T09:59:02.598Z,24768.00
2018-07-21T10:00:02.571Z,23648.00
2018-07-21T10:01:02.552Z,18112.00
2018-07-21T10:02:02.593Z,37120.00
2018-07-21T10:03:02.543Z,54144.00
2018-07-21T10:04:02.735Z,70784.00
2018-07-21T10:05:02.515Z,63264.00
2018-07-21T10:06:02.575Z,43968.00
2018-07-21T10:07:02.703Z,49248.00
2018-07-21T10:08:02.691Z,59488.00
2018-07-21T10:09:02.647Z,61088.00
2018-07-21T10:10:02.809Z,50048.00
2018-07-21T10:11:02.637Z,49408.00
2018-07-21T10:12:02.663Z,44960.00
2018-07-21T10:13:02.626Z,43840.00
2018-07-21T10:14:02.688Z,51648.00
2018-07-21T10:15:02.759Z,44256.00
2018-07-21T10:16:02.730Z,64896.00
2018-07-21T10:17:02.721Z,62464.00
2018-07-21T10:18:03.198Z,46624.00
2018-07-21T10:19:02.812Z,40032.00
2018-07-21T10:20:02.760Z,42048.00
2018-07-21T10:21:02.729Z,47744.00
2018-07-21T10:22:02.815Z,62688.00
2018-07-21T10:23:02.856Z,61024.00
2018-07-21T10:24:02.859Z,60448.00
2018-07-21T10:25:02.960Z,51904.00
2018-07-21T10:26:03.160Z,29696.00
2018-07-21T10:27:03.111Z,40384.00
2018-07-21T10:28:02.976Z,33664.00
2018-07-21T10:29:02.891Z,49056.00
2018-07-21T10:30:03.549Z,50656.00
2018-07-21T10:31:02.933Z,51840.00
2018-07-21T10:32:02.958Z,55008.00
2018-07-21T10:33:03.018Z,55072.00
2018-07-21T10:34:03.058Z,52416.00
2018-07-21T10:35:03.078Z,56288.00
2018-07-21T10:36:03.070Z,58368.00
2018-07-21T10:37:03.038Z,52448.00
2018-07-21T10:38:03.225Z,44288.00
2018-07-21T10:39:03.149Z,50688.00
2018-07-21T10:40:03.154Z,42944.00
2018-07-21T10:41:03.088Z,42624.00
2018-07-21T10:42:03.186Z,47872.00
2018-07-21T10:43:03.098Z,51872.00
2018-07-21T10:44:03.157Z,52544.00
2018-07-21T10:45:03.166Z,57728.00
2018-07-21T10:46:03.272Z,47680.00
2018-07-21T10:47:03.148Z,44768.00
2018-07-21T10:48:03.241Z,30976.00
2018-07-21T10:49:03.354Z,21728.00
2018-07-21T10:50:03.230Z,13440.00
2018-07-21T10:51:03.243Z,13000.00
2018-07-21T10:52:03.469Z,13620.00
2018-07-21T10:53:03.276Z,14100.00
2018-07-21T10:54:03.243Z,15084.00
2018-07-21T10:55:03.293Z,14316.00
2018-07-21T10:56:03.300Z,13744.00
2018-07-21T10:57:03.966Z,13780.00
2018-07-21T10:58:03.432Z,14104.00
2018-07-21T10:59:03.333Z,14628.00
2018-07-21T11:00:03.347Z,14896.00
2018-07-21T11:01:03.387Z,14168.00
2018-07-21T11:02:03.427Z,13500.00
2018-07-21T11:03:03.418Z,13452.00
2018-07-21T11:04:03.496Z,13888.00
2018-07-21T11:05:03.507Z,14456.00
2018-07-21T11:06:03.393Z,14304.00
2018-07-21T11:07:03.545Z,14392.00
2018-07-21T11:08:03.728Z,13396.00
2018-07-21T11:09:03.468Z,12916.00
2018-07-21T11:10:03.513Z,12748.00
2018-07-21T11:11:03.542Z,12684.00
2018-07-21T11:12:03.600Z,13488.00
2018-07-21T11:13:03.710Z,14468.00
2018-07-21T11:14:03.541Z,14616.00
2018-07-21T11:15:03.576Z,14840.00
2018-07-21T11:16:04.070Z,15056.00
2018-07-21T11:17:03.545Z,15240.00
2018-07-21T11:18:03.525Z,14924.00
2018-07-21T11:19:03.602Z,13956.00
2018-07-21T11:20:03.619Z,13736.00
2018-07-21T11:21:03.555Z,13968.00
2018-07-21T11:22:04.547Z,14116.00
2018-07-21T11:23:03.750Z,13820.00
2018-07-21T11:24:03.645Z,13272.00
2018-07-21T11:25:03.651Z,12980.00
2018-07-21T11:26:03.679Z,12988.00
2018-07-21T11:27:03.698Z,12160.00
2018-07-21T11:28:03.751Z,12176.00
2018-07-21T11:29:03.686Z,12056.00
2018-07-21T11:30:03.772Z,11496.00
2018-07-21T11:31:03.739Z,10936.00
2018-07-21T11:32:03.765Z,10808.00
2018-07-21T11:33:03.782Z,10636.00
2018-07-21T11:34:03.740Z,10284.00
2018-07-21T11:35:10.629Z,10136.00
2018-07-21T11:36:04.155Z,9980.00
2018-07-21T11:37:03.811Z,9880.00
2018-07-21T11:38:03.850Z,9704.00
2018-07-21T11:39:04.116Z,9524.00
2018-07-21T11:40:03.921Z,9388.00
2018-07-21T11:41:03.757Z,9008.00
2018-07-21T11:42:03.858Z,9080.00
2018-07-21T11:43:03.860Z,9028.00
2018-07-21T11:44:03.828Z,8960.00
2018-07-21T11:45:03.850Z,8872.00
2018-07-21T11:46:03.868Z,8772.00
2018-07-21T11:47:03.886Z,8652.00
2018-07-21T11:48:05.782Z,8540.00
2018-07-21T11:49:03.898Z,8432.00
2018-07-21T11:50:04.519Z,8308.00
2018-07-21T11:51:03.908Z,8184.00
2018-07-21T11:52:03.898Z,8320.00
2018-07-21T11:53:03.933Z,8356.00
2018-07-21T11:54:03.977Z,8388.00
2018-07-21T11:55:03.936Z,8412.00
2018-07-21T11:56:04.036Z,8428.00
2018-07-21T11:57:03.994Z,8384.00
2018-07-21T11:58:04.656Z,8280.00
2018-07-21T11:59:03.979Z,8188.00
2018-07-21T12:00:04.462Z,8256.00
2018-07-21T12:01:09.528Z,8292.00
2018-07-21T12:02:05.524Z,8368.00
2018-07-21T12:03:12.028Z,8356.00
2018-07-21T12:04:04.033Z,8296.00
2018-07-21T12:05:04.017Z,8200.00
2018-07-21T12:07:06.290Z,8004.00
2018-07-21T12:08:04.114Z,7884.00
2018-07-21T12:09:04.145Z,7660.00
2018-07-21T12:10:04.526Z,7800.00
2018-07-21T12:11:04.112Z,7724.00
2018-07-21T12:12:04.571Z,7680.00
2018-07-21T12:13:04.176Z,7708.00
2018-07-21T12:14:04.434Z,7756.00
2018-07-21T12:15:06.726Z,7748.00
2018-07-21T12:16:05.481Z,7724.00
2018-07-21T12:17:04.189Z,7700.00
2018-07-21T12:18:04.607Z,7704.00
2018-07-21T12:19:04.276Z,7688.00
2018-07-21T12:20:04.315Z,7672.00
2018-07-21T12:21:04.425Z,7644.00
2018-07-21T12:22:04.295Z,7612.00
2018-07-21T12:23:04.549Z,7568.00
2018-07-21T12:24:04.386Z,7512.00